Thunder radar more information blitzortung!


Radar de pluja more information rain snow radar


Visita la nostra xarxa de llocs de meteo:

Template documentation
and downloads

And another site



No particular awareness of the weather is required.    There are no Weather-warnings

Pagina Historial Weather Underground text

Diari Resum Octubre 1, 2017 Unitats:  Imperial    Mètric   Tant
« Previous Dia
SegĂźent Dia »
Diari Setmana Mensual Anual Personalitzada
  Maxima: Minima: Media:
Temperatura: 69.3 °F 61.3 °F 65.5 °F
Punt de rosada: 61.2 °F 56.3 °F 59.4 °F
Humitat: 92 % 74 % 81 %
Wind Speed: 8.1 mph 0 mph 2.5 mph
RĂ fegues de vent: 8.1 mph - -
Vent:- - South
Pression baro: 30.2 in 30.2 in -
Precipitacions: 0 in    
Historical Graphs
 
 
Dades de taula per Octubre 1, 2017
Temps Temperatura Punt de rosada Pression baro Vent Wind Speed RĂ fegues de vent Humitat Rainfall Rate (Hourly)
00:03 62.4 °F 56.5 °F 30.2 in NNW 1.2 mph 1.2 mph 81 % 0 in
00:08 62.2 °F 56.3 °F 30.2 in NE 2.3 mph   81 % 0 in
00:13 62.2 °F 56.3 °F 30.2 in NNE 1.2 mph 1.2 mph 81 % 0 in
00:18 62.2 °F 56.3 °F 30.2 in ENE 1.2 mph 1.2 mph 81 % 0 in
00:23 62.1 °F 56.5 °F 30.2 in ENE 2.3 mph 2.3 mph 82 % 0 in
00:24 62.1 °F 56.5 °F 30.2 in NNW 2.3 mph 2.3 mph 82 % 0 in
00:29 62.1 °F 56.5 °F 30.2 in WNW 1.2 mph 1.2 mph 82 % 0 in
03:40 61.7 °F 57.6 °F 30.2 in Calm     86 % 0 in
03:50 61.9 °F 57.6 °F 30.2 in NE 1 mph 1 mph 86 % 0 in
04:00 62.1 °F 57.7 °F 30.2 in West 1 mph 1 mph 86 % 0 in
04:10 62.2 °F 57.9 °F 30.2 in NNW 1 mph 2 mph 86 % 0 in
04:20 62.4 °F 57.7 °F 30.2 in Calm   1 mph 85 % 0 in
04:30 62.6 °F 57.9 °F 30.2 in Calm   1 mph 85 % 0 in
04:40 62.8 °F 58.3 °F 30.2 in ENE 2 mph 2 mph 85 % 0 in
04:50 63 °F 58.5 °F 30.2 in Calm   2 mph 85 % 0 in
05:00 63 °F 57.7 °F 30.2 in ENE 1 mph 2 mph 83 % 0 in
05:10 63.3 °F 58.1 °F 30.2 in Calm   2 mph 83 % 0 in
05:20 63.5 °F 57.9 °F 30.2 in Calm   2 mph 82 % 0 in
10:22 64.2 °F 58.3 °F 30.2 in Calm     81 % 0 in
10:27 64.6 °F 58.6 °F 30.2 in ENE 1.4 mph 1.4 mph 81 % 0 in
10:32 64.6 °F 58.3 °F 30.2 in Calm     80 % 0 in
10:37 64.9 °F 58.6 °F 30.2 in Calm     80 % 0 in
10:42 65.1 °F 58.8 °F 30.2 in ENE 1.4 mph   80 % 0 in
10:47 65.3 °F 58.6 °F 30.2 in ESE 2.3 mph 2.3 mph 79 % 0 in
10:52 65.3 °F 59 °F 30.2 in East 2.3 mph 2.3 mph 80 % 0 in
10:57 65.5 °F 58.8 °F 30.2 in ENE 2.3 mph 2.3 mph 79 % 0 in
11:02 65.7 °F 59.4 °F 30.2 in East 3.1 mph 3.1 mph 80 % 0 in
11:07 65.7 °F 59.4 °F 30.2 in SE 2.3 mph 2.3 mph 80 % 0 in
11:12 65.7 °F 59.4 °F 30.2 in ENE 3.5 mph 3.5 mph 80 % 0 in
11:17 65.7 °F 59.4 °F 30.2 in East 2.3 mph 2.3 mph 80 % 0 in
11:22 65.8 °F 59.5 °F 30.2 in ESE 3.1 mph 3.1 mph 80 % 0 in
11:27 65.7 °F 59.4 °F 30.2 in ESE 4 mph 4 mph 80 % 0 in
11:32 65.7 °F 59.4 °F 30.2 in ENE 2.4 mph 2.4 mph 80 % 0 in
11:37 66 °F 60.1 °F 30.2 in ENE 4.6 mph 4.6 mph 81 % 0 in
11:42 66.2 °F 59.7 °F 30.2 in NNE 2.9 mph 2.9 mph 80 % 0 in
11:47 66.2 °F 59.7 °F 30.2 in ENE 3.6 mph 3.6 mph 80 % 0 in
11:52 66 °F 60.1 °F 30.2 in ESE 4.6 mph 4.6 mph 81 % 0 in
11:53 66.2 °F 59.7 °F 30.2 in ESE 4.9 mph 4.9 mph 80 % 0 in
11:58 66.4 °F 60.1 °F 30.2 in NNE 4.6 mph 4.6 mph 80 % 0 in
12:03 66.2 °F 59.7 °F 30.2 in ENE 4.6 mph 4.6 mph 80 % 0 in
12:08 66 °F 60.4 °F 30.2 in ENE 4.6 mph 4.6 mph 82 % 0 in
12:13 66.2 °F 60.3 °F 30.2 in ESE 6.2 mph 6.2 mph 81 % 0 in
12:18 66.4 °F 60.6 °F 30.2 in ENE 3.8 mph 3.8 mph 82 % 0 in
12:23 66.4 °F 60.4 °F 30.2 in ESE 3.8 mph 3.8 mph 81 % 0 in
12:28 66.2 °F 60.3 °F 30.2 in ENE 6.9 mph 6.9 mph 81 % 0 in
12:33 65.8 °F 60.3 °F 30.2 in East 5.8 mph 5.8 mph 82 % 0 in
12:38 66 °F 60.4 °F 30.2 in SE 8.1 mph 8.1 mph 82 % 0 in
12:43 66.2 °F 60.3 °F 30.2 in ESE 3.8 mph 3.8 mph 81 % 0 in
12:48 66.4 °F 60.1 °F 30.2 in ESE 6.9 mph 6.9 mph 80 % 0 in
12:53 66.6 °F 60.3 °F 30.2 in ESE 4.3 mph 4.3 mph 80 % 0 in
12:58 66.9 °F 60.4 °F 30.2 in South 4.6 mph 4.6 mph 80 % 0 in
13:03 67.6 °F 61 °F 30.2 in South 2.3 mph 2.3 mph 79 % 0 in
13:08 68.4 °F 61.2 °F 30.2 in East 3.5 mph 3.5 mph 78 % 0 in
13:13 67.8 °F 60.6 °F 30.2 in SE 4.6 mph 4.6 mph 78 % 0 in
13:18 68 °F 61 °F 30.2 in East 4.9 mph 4.9 mph 78 % 0 in
13:23 67.8 °F 60.6 °F 30.2 in SSE 5.8 mph 5.8 mph 78 % 0 in
13:28 68 °F 61 °F 30.2 in ENE 5.8 mph 5.8 mph 78 % 0 in
13:33 68 °F 60.4 °F 30.2 in ESE 7.6 mph 7.6 mph 77 % 0 in
13:38 68.4 °F 61 °F 30.2 in ESE 5.8 mph 5.8 mph 77 % 0 in
13:43 68.2 °F 60.6 °F 30.2 in East 8.1 mph 8.1 mph 77 % 0 in
13:48 68 °F 60.4 °F 30.2 in ESE 5.9 mph 5.9 mph 77 % 0 in
13:53 68 °F 60.4 °F 30.2 in SSE 6.9 mph 6.9 mph 77 % 0 in
13:58 68.4 °F 61 °F 30.2 in ESE 2.3 mph 2.3 mph 77 % 0 in
14:03 68.7 °F 60.8 °F 30.2 in SE 3.6 mph 3.6 mph 76 % 0 in
14:08 68.2 °F 60.3 °F 30.2 in ESE 2.4 mph 2.4 mph 76 % 0 in
14:13 68.2 °F 60.3 °F 30.2 in ESE 2.4 mph 2.4 mph 76 % 0 in
14:18 68 °F 60.3 °F 30.2 in South 3.5 mph 3.5 mph 76 % 0 in
14:23 68.4 °F 61 °F 30.2 in WSW 2.9 mph 2.9 mph 77 % 0 in
14:28 68.2 °F 61.2 °F 30.2 in SW 2.6 mph 2.6 mph 78 % 0 in
14:33 68.2 °F 61.2 °F 30.2 in WSW 2.3 mph 2.3 mph 78 % 0 in
14:38 68.4 °F 61.2 °F 30.2 in SW 3.5 mph 3.5 mph 78 % 0 in
14:43 68.4 °F 61.2 °F 30.2 in SW 2.9 mph 2.9 mph 78 % 0 in
14:48 68.4 °F 61 °F 30.2 in East 2.3 mph 2.3 mph 77 % 0 in
14:53 68.4 °F 61 °F 30.2 in ENE 3.3 mph 3.3 mph 77 % 0 in
14:58 68 °F 60.4 °F 30.2 in ENE 4.6 mph 4.6 mph 77 % 0 in
15:03 67.6 °F 60.4 °F 30.2 in East 4.6 mph 4.6 mph 78 % 0 in
15:08 67.5 °F 60.1 °F 30.2 in ESE 5.8 mph 5.8 mph 77 % 0 in
15:13 67.5 °F 60.1 °F 30.2 in ESE 7.1 mph 7.1 mph 77 % 0 in
15:18 67.5 °F 60.1 °F 30.2 in East 5.8 mph 5.8 mph 77 % 0 in
15:23 67.6 °F 60.3 °F 30.2 in ESE 6.9 mph 6.9 mph 77 % 0 in
15:33 67.8 °F 60.3 °F 30.2 in NE 2.9 mph 2.9 mph 77 % 0 in
15:34 67.8 °F 60.3 °F 30.2 in ESE 3.5 mph 3.5 mph 77 % 0 in
15:39 67.8 °F 60.3 °F 30.2 in East 5.8 mph 5.8 mph 77 % 0 in
15:44 67.6 °F 59.7 °F 30.2 in ESE 5.8 mph 5.8 mph 76 % 0 in
15:49 67.6 °F 59.7 °F 30.2 in ENE 4.6 mph 4.6 mph 76 % 0 in
15:54 67.6 °F 59.7 °F 30.2 in ESE 5.8 mph 5.8 mph 76 % 0 in
15:59 67.6 °F 59.7 °F 30.2 in East 3.5 mph 3.5 mph 76 % 0 in
16:04 67.8 °F 60.1 °F 30.2 in SSE 4.6 mph 4.6 mph 76 % 0 in
16:09 67.8 °F 60.1 °F 30.2 in ESE 4.6 mph 4.6 mph 76 % 0 in
16:14 67.8 °F 60.1 °F 30.2 in SSE 2.3 mph 2.3 mph 76 % 0 in
16:19 68 °F 60.3 °F 30.2 in ESE 1.2 mph   76 % 0 in
16:20 68.2 °F 60.3 °F 30.2 in WSW 1.2 mph   76 % 0 in
16:25 68.4 °F 60.1 °F 30.2 in South 4.7 mph 4.7 mph 75 % 0 in
16:30 68.4 °F 60.1 °F 30.2 in WSW 3.5 mph 3.5 mph 75 % 0 in
16:35 68.9 °F 60.6 °F 30.2 in SW 1.2 mph   75 % 0 in
16:40 69.3 °F 61 °F 30.2 in SE 2.3 mph 2.3 mph 75 % 0 in
16:45 69.3 °F 61 °F 30.2 in SW 2.4 mph 2.4 mph 75 % 0 in
16:50 69.1 °F 60.4 °F 30.2 in SSE 2.9 mph 2.9 mph 74 % 0 in
16:55 68.9 °F 60.3 °F 30.2 in SSE 4.6 mph 4.6 mph 74 % 0 in
17:00 68.7 °F 60.1 °F 30.2 in WSW 2.9 mph 2.9 mph 74 % 0 in
17:05 68.7 °F 60.1 °F 30.2 in SW 2.3 mph   74 % 0 in
17:10 68.7 °F 60.1 °F 30.2 in SW 3.5 mph 3.5 mph 74 % 0 in
17:15 68.7 °F 60.1 °F 30.2 in South 3.1 mph 3.1 mph 74 % 0 in
17:20 68.7 °F 60.1 °F 30.2 in ESE 3.5 mph 3.5 mph 74 % 0 in
17:25 68.5 °F 59.9 °F 30.2 in South 1.6 mph 1.6 mph 74 % 0 in
17:30 68.5 °F 59.9 °F 30.2 in SSE 3.5 mph   74 % 0 in
17:35 68.7 °F 60.1 °F 30.2 in SW 3.1 mph 3.1 mph 74 % 0 in
17:40 68.4 °F 59.7 °F 30.2 in WSW 3.5 mph 3.5 mph 74 % 0 in
17:45 68.4 °F 59.7 °F 30.2 in SSW 3.5 mph   74 % 0 in
17:50 68.2 °F 59.5 °F 30.2 in SW 4.6 mph 4.6 mph 74 % 0 in
17:55 68 °F 59.4 °F 30.2 in SW 3.3 mph 3.3 mph 74 % 0 in
18:00 68 °F 59.4 °F 30.2 in SW 4.6 mph 4.6 mph 74 % 0 in
18:05 68 °F 59.7 °F 30.2 in SSW 3.1 mph 3.1 mph 75 % 0 in
18:10 67.8 °F 59.5 °F 30.2 in SW 3.5 mph 3.5 mph 75 % 0 in
18:15 67.8 °F 60.1 °F 30.2 in West 3.5 mph 3.5 mph 76 % 0 in
18:20 67.8 °F 60.1 °F 30.2 in WSW 2.3 mph 2.3 mph 76 % 0 in
18:25 67.6 °F 59.7 °F 30.2 in WSW 2.3 mph 2.3 mph 76 % 0 in
18:30 67.6 °F 59.7 °F 30.2 in SSW 2.3 mph 2.3 mph 76 % 0 in
18:35 67.5 °F 59.5 °F 30.2 in SSW 4.6 mph 4.6 mph 76 % 0 in
18:40 67.3 °F 59.5 °F 30.2 in SW 3.6 mph 3.6 mph 76 % 0 in
18:45 67.3 °F 59.5 °F 30.2 in SW 3.5 mph 3.5 mph 76 % 0 in
18:50 66.9 °F 59.5 °F 30.2 in WNW 3.5 mph 3.5 mph 77 % 0 in
18:55 66.7 °F 59.4 °F 30.2 in SW 3.5 mph 3.5 mph 77 % 0 in
19:00 66.6 °F 59.2 °F 30.2 in SW 4 mph 4 mph 77 % 0 in
19:05 66.6 °F 59.2 °F 30.2 in SW 3.5 mph 3.5 mph 77 % 0 in
19:10 66.4 °F 58.8 °F 30.2 in SW 2.4 mph 2.4 mph 77 % 0 in
19:15 66.4 °F 59.4 °F 30.2 in SW 3.5 mph 3.5 mph 78 % 0 in
19:20 66.2 °F 59.2 °F 30.2 in West 4.6 mph 4.6 mph 78 % 0 in
19:25 66.2 °F 59.2 °F 30.2 in WSW 3.6 mph 3.6 mph 78 % 0 in
19:30 66 °F 59.4 °F 30.2 in SW 4.6 mph 4.6 mph 79 % 0 in
19:35 66 °F 59.4 °F 30.2 in SW 2.4 mph 2.4 mph 79 % 0 in
19:40 65.8 °F 59.2 °F 30.2 in WSW 4.7 mph 4.7 mph 79 % 0 in
19:45 65.8 °F 59.2 °F 30.2 in SW 2.3 mph 2.3 mph 79 % 0 in
19:50 65.7 °F 59 °F 30.2 in SW 2.2 mph 2.2 mph 79 % 0 in
19:55 65.7 °F 59.4 °F 30.2 in WSW 1.6 mph 1.6 mph 80 % 0 in
20:00 65.5 °F 59.2 °F 30.2 in WSW 1.6 mph   80 % 0 in
20:05 65.3 °F 59 °F 30.2 in SSW 2.3 mph   80 % 0 in
20:10 65.3 °F 59 °F 30.2 in SSW 2.3 mph 2.3 mph 80 % 0 in
20:15 65.1 °F 58.8 °F 30.2 in SW 2.3 mph 2.3 mph 80 % 0 in
20:16 65.1 °F 58.8 °F 30.2 in SW 2.3 mph 2.3 mph 80 % 0 in
20:20 62.6 °F 59.4 °F 30.2 in Calm     89 % 0 in
20:21 64.9 °F 59 °F 30.2 in SSW 2.3 mph 2.3 mph 81 % 0 in
20:26 64.9 °F 59 °F 30.2 in SW 2.3 mph 2.3 mph 81 % 0 in
20:30 62.4 °F 59.2 °F 30.2 in Calm     89 % 0 in
20:31 64.8 °F 58.8 °F 30.2 in West 1.2 mph 1.2 mph 81 % 0 in
20:36 64.8 °F 58.8 °F 30.2 in SW 2.3 mph 2.3 mph 81 % 0 in
20:40 62.4 °F 59.2 °F 30.2 in Calm     89 % 0 in
20:41 64.6 °F 58.6 °F 30.2 in West 2.3 mph 2.3 mph 81 % 0 in
20:46 64.6 °F 59 °F 30.2 in SW 2.3 mph 2.3 mph 82 % 0 in
20:50 62.4 °F 59.2 °F 30.2 in Calm     89 % 0 in
20:51 64.4 °F 58.8 °F 30.2 in West 2.3 mph 2.3 mph 82 % 0 in
20:56 64.2 °F 58.6 °F 30.2 in SW 2.3 mph 2.3 mph 82 % 0 in
21:00 62.4 °F 59.4 °F 30.2 in Calm     90 % 0 in
21:01 64 °F 58.8 °F 30.2 in SW 1.2 mph 1.2 mph 83 % 0 in
21:06 63.9 °F 58.6 °F 30.2 in WSW 1.4 mph 1.4 mph 83 % 0 in
21:10 62.4 °F 59.4 °F 30.2 in Calm     90 % 0 in
21:11 63.7 °F 58.5 °F 30.2 in SW 2.3 mph 2.3 mph 83 % 0 in
21:16 63.7 °F 58.5 °F 30.2 in WSW 1.2 mph 1.2 mph 83 % 0 in
21:20 62.2 °F 59.4 °F 30.2 in Calm     90 % 0 in
21:21 63.5 °F 58.3 °F 30.2 in WSW 2.3 mph 2.3 mph 83 % 0 in
21:26 63.5 °F 58.6 °F 30.2 in WSW 2.3 mph 2.3 mph 84 % 0 in
21:30 62.2 °F 59.4 °F 30.2 in Calm     90 % 0 in
21:31 63.5 °F 58.6 °F 30.2 in WSW 2.4 mph 2.4 mph 84 % 0 in
21:36 63.5 °F 58.6 °F 30.2 in WSW 2.3 mph 2.3 mph 84 % 0 in
21:40 62.2 °F 59.4 °F 30.2 in Calm     90 % 0 in
21:41 63.5 °F 58.6 °F 30.2 in West 2.3 mph 2.3 mph 84 % 0 in
21:46 63.5 °F 58.6 °F 30.2 in WSW 2 mph 2 mph 84 % 0 in
21:50 62.1 °F 59.2 °F 30.2 in Calm     90 % 0 in
21:51 63.5 °F 58.6 °F 30.2 in WSW 2.3 mph 2.3 mph 84 % 0 in
21:56 63.3 °F 58.5 °F 30.2 in WSW 2.6 mph 2.6 mph 84 % 0 in
22:00 62.1 °F 59.2 °F 30.2 in Calm     90 % 0 in
22:01 63.3 °F 58.5 °F 30.2 in WSW 2.3 mph 2.3 mph 84 % 0 in
22:06 63.3 °F 58.6 °F 30.2 in West 2.3 mph 2.3 mph 85 % 0 in
22:10 61.9 °F 58.8 °F 30.2 in Calm     90 % 0 in
22:11 63.1 °F 58.6 °F 30.2 in West 2.2 mph 2.2 mph 85 % 0 in
22:16 63.1 °F 58.6 °F 30.2 in West 2.3 mph 2.3 mph 85 % 0 in
22:20 62.1 °F 59.4 °F 30.2 in Calm     91 % 0 in
22:21 63.1 °F 58.6 °F 30.2 in WSW 2.3 mph 2.3 mph 85 % 0 in
22:26 63.1 °F 58.6 °F 30.2 in WSW 1.6 mph 1.6 mph 85 % 0 in
22:30 62.1 °F 59.4 °F 30.2 in Calm     91 % 0 in
22:31 63.1 °F 58.6 °F 30.2 in WSW 2.3 mph 2.3 mph 85 % 0 in
22:36 63 °F 58.6 °F 30.2 in SW 1.2 mph   86 % 0 in
22:40 62.2 °F 59.5 °F 30.2 in Calm     91 % 0 in
22:41 63 °F 58.6 °F 30.2 in West 1.2 mph   86 % 0 in
22:46 63 °F 58.6 °F 30.2 in West 2.3 mph 2.3 mph 86 % 0 in
22:50 62.1 °F 59.4 °F 30.2 in Calm   3 mph 91 % 0 in
22:51 63.1 °F 58.8 °F 30.2 in West 2.3 mph 2.3 mph 86 % 0 in
22:56 63.1 °F 58.8 °F 30.2 in West 2.3 mph 2.3 mph 86 % 0 in
23:00 62.1 °F 59.4 °F 30.2 in Calm   2 mph 91 % 0 in
23:01 63.1 °F 58.8 °F 30.2 in West 1.2 mph 1.4 mph 86 % 0 in
23:06 63.1 °F 59.2 °F 30.2 in Calm     87 % 0 in
23:10 61.7 °F 59 °F 30.2 in Calm     91 % 0 in
23:11 63.1 °F 59.2 °F 30.2 in Calm     87 % 0 in
23:16 63.1 °F 59.2 °F 30.2 in Calm     87 % 0 in
23:20 61.5 °F 58.8 °F 30.2 in Calm     91 % 0 in
23:21 63.1 °F 59.2 °F 30.2 in Calm     87 % 0 in
23:26 63.1 °F 59.2 °F 30.2 in Calm     87 % 0 in
23:30 61.3 °F 58.6 °F 30.2 in Calm   1 mph 91 % 0 in
23:31 63 °F 59 °F 30.2 in Calm     87 % 0 in
23:36 62.8 °F 58.8 °F 30.2 in Calm     87 % 0 in
23:40 61.5 °F 59.2 °F 30.2 in Calm   1 mph 92 % 0 in
23:41 62.8 °F 58.8 °F 30.2 in Calm     87 % 0 in
23:46 62.8 °F 58.8 °F 30.2 in Calm     87 % 0 in
23:50 61.3 °F 59 °F 30.2 in Calm   1 mph 92 % 0 in
23:51 62.6 °F 58.6 °F 30.2 in Calm     87 % 0 in
23:56 62.6 °F 58.6 °F 30.2 in Calm     87 % 0 in
Meteo Sesrovires
Elogis d' Weather Underground - 3.5 mb

Guio original per  Jim McMurry - jmcmurry@mwt.net Adaptat per a la plantilla per  Wim van der Kuil - Leuven-Template.eu

Trobareu la nostra informacio del temps tambe a:

Weather Underground

AWEKAS